Time;durP1;ratioP1;P1;durP2;ratioP2;P2;SDS_P1;SDS_P2;PMS_P1;PMS_P2;Temp;Humidity;BMP_temperature;BMP_pressure;BME280_temperature;BME280_humidity;BME280_pressure;Samples;Min_cycle;Max_cycle;Signal;HPM_P1;HPM_P2
2023/06/17 00:00:20;;;;;;;5.77;3.83;;;16.90;99.90;;;;;;5099450;28;20659;-47
2023/06/17 00:02:46;;;;;;;5.00;3.47;;;16.90;99.90;;;;;;5098186;28;20639;-45
2023/06/17 00:05:12;;;;;;;5.27;3.37;;;16.80;99.90;;;;;;5096314;28;20604;-47
2023/06/17 00:07:39;;;;;;;4.93;4.07;;;16.70;99.90;;;;;;5094966;28;20179;-47
2023/06/17 00:10:06;;;;;;;6.70;3.90;;;16.70;99.90;;;;;;5096433;28;20199;-46
2023/06/17 00:12:32;;;;;;;4.67;3.43;;;16.50;99.90;;;;;;5096411;28;20175;-46
2023/06/17 00:15:02;;;;;;;5.10;3.80;;;16.50;99.90;;;;;;5096311;28;20203;-47
2023/06/17 00:17:31;;;;;;;8.10;3.60;;;16.40;99.90;;;;;;5094761;28;20175;-45
2023/06/17 00:19:58;;;;;;;5.07;3.70;;;16.40;99.90;;;;;;5095979;28;20175;-46
2023/06/17 00:22:25;;;;;;;3.90;3.50;;;16.30;99.90;;;;;;5096226;28;20183;-48
2023/06/17 00:24:51;;;;;;;4.07;3.67;;;16.20;99.90;;;;;;5096146;28;20198;-46
2023/06/17 00:27:17;;;;;;;4.87;3.80;;;16.20;99.90;;;;;;5095866;28;20207;-47
2023/06/17 00:29:43;;;;;;;4.20;3.80;;;16.10;99.90;;;;;;5096018;28;20231;-48
2023/06/17 00:32:08;;;;;;;4.83;3.60;;;16.00;99.90;;;;;;5096018;28;20167;-46
2023/06/17 00:34:34;;;;;;;5.70;3.73;;;15.90;99.90;;;;;;5095648;28;20568;-46
2023/06/17 00:37:00;;;;;;;5.77;3.77;;;15.90;99.90;;;;;;5094259;28;20674;-46
2023/06/17 00:39:26;;;;;;;5.00;3.73;;;15.80;99.90;;;;;;5095605;28;20274;-46
2023/06/17 00:41:51;;;;;;;6.03;3.37;;;15.80;99.90;;;;;;5094302;28;20183;-47
2023/06/17 00:44:17;;;;;;;3.97;3.20;;;15.70;99.90;;;;;;5094191;28;20194;-46
2023/06/17 00:46:47;;;;;;;5.50;3.60;;;15.60;99.90;;;;;;5094172;28;20186;-46
2023/06/17 00:49:13;;;;;;;8.40;3.67;;;15.60;99.90;;;;;;5095637;28;20207;-46
2023/06/17 00:51:39;;;;;;;4.30;3.50;;;15.50;99.90;;;;;;5095663;28;20171;-46
2023/06/17 00:54:07;;;;;;;5.43;3.13;;;15.50;99.90;;;;;;5095472;28;20223;-48
2023/06/17 00:56:34;;;;;;;3.70;3.40;;;15.40;99.90;;;;;;5095637;28;20248;-46
2023/06/17 00:59:01;;;;;;;4.43;3.77;;;15.40;99.90;;;;;;5095587;28;20515;-46
2023/06/17 01:01:29;;;;;;;5.70;3.60;;;15.40;99.90;;;;;;5093894;28;20185;-46
2023/06/17 01:03:58;;;;;;;7.90;3.63;;;15.20;99.90;;;;;;5095041;28;20211;-48
2023/06/17 01:06:45;;;;;;;4.93;3.67;;;15.20;99.90;;;;;;5095342;28;20228;-46
2023/06/17 01:09:16;;;;;;;5.43;3.60;;;15.10;99.90;;;;;;5095298;28;20742;-47
2023/06/17 01:11:43;;;;;;;6.30;3.67;;;15.00;99.90;;;;;;5094635;28;20167;-46
2023/06/17 01:14:10;;;;;;;4.67;3.10;;;15.00;99.90;;;;;;5094864;28;20194;-47
2023/06/17 01:16:40;;;;;;;4.87;3.53;;;14.90;99.90;;;;;;5095594;28;20590;-46
2023/06/17 01:19:20;;;;;;;6.17;4.00;;;14.90;99.90;;;;;;5095141;28;20760;-46
2023/06/17 01:21:48;;;;;;;4.53;3.63;;;14.80;99.90;;;;;;5094045;28;20163;-46
2023/06/17 01:24:30;;;;;;;4.20;3.20;;;14.80;99.90;;;;;;5094738;28;20278;-45
2023/06/17 01:27:00;;;;;;;3.57;3.20;;;14.70;99.90;;;;;;5094998;28;20167;-46
2023/06/17 01:29:39;;;;;;;5.20;3.23;;;14.70;99.90;;;;;;5095200;28;20214;-46
2023/06/17 01:32:08;;;;;;;4.27;3.50;;;14.60;99.90;;;;;;5094632;28;20161;-47
2023/06/17 01:34:51;;;;;;;3.93;3.53;;;14.50;99.90;;;;;;5094824;28;20662;-45
2023/06/17 01:37:34;;;;;;;5.87;3.77;;;14.50;99.90;;;;;;5094567;28;20187;-45
2023/06/17 01:40:02;;;;;;;4.60;3.60;;;14.50;99.90;;;;;;5094773;28;20189;-45
2023/06/17 01:42:35;;;;;;;5.40;3.87;;;14.40;99.90;;;;;;5094343;28;20660;-47
2023/06/17 01:45:05;;;;;;;3.70;3.23;;;14.40;99.90;;;;;;5094296;28;20223;-44
2023/06/17 01:47:31;;;;;;;4.83;3.17;;;14.40;99.90;;;;;;5094904;28;20582;-46
2023/06/17 01:49:59;;;;;;;6.00;3.17;;;14.30;99.90;;;;;;5092951;28;20251;-47
2023/06/17 01:52:25;;;;;;;3.70;3.30;;;14.20;99.90;;;;;;5094436;28;20580;-47
2023/06/17 01:54:51;;;;;;;3.93;3.37;;;14.20;99.90;;;;;;5094227;28;20191;-45
2023/06/17 01:57:16;;;;;;;4.00;3.30;;;14.20;99.90;;;;;;5094449;28;20179;-45
2023/06/17 01:59:42;;;;;;;5.10;3.47;;;14.20;99.90;;;;;;5094406;28;20664;-44
2023/06/17 02:02:08;;;;;;;4.93;3.57;;;14.10;99.90;;;;;;5092751;28;20186;-46
2023/06/17 02:04:34;;;;;;;4.67;3.57;;;14.10;99.90;;;;;;5094226;28;20285;-47
2023/06/17 02:06:59;;;;;;;3.67;3.20;;;14.10;99.90;;;;;;5093966;28;20210;-47
2023/06/17 02:09:25;;;;;;;3.37;3.07;;;14.00;99.90;;;;;;5093923;28;20626;-44
2023/06/17 02:11:50;;;;;;;6.70;3.67;;;14.00;99.90;;;;;;5093937;28;20166;-45
2023/06/17 02:14:16;;;;;;;9.73;3.43;;;13.90;99.90;;;;;;5093968;28;20198;-45
2023/06/17 02:16:48;;;;;;;3.97;3.13;;;13.90;99.90;;;;;;5092610;28;20560;-44
2023/06/17 02:19:15;;;;;;;3.70;2.90;;;13.80;99.90;;;;;;5093867;28;20261;-46
2023/06/17 02:21:41;;;;;;;5.63;3.30;;;13.80;99.90;;;;;;5094065;28;20232;-46
2023/06/17 02:24:07;;;;;;;3.90;3.17;;;13.70;99.90;;;;;;5093613;28;20195;-45
2023/06/17 02:26:33;;;;;;;3.87;3.43;;;13.60;99.90;;;;;;5093658;28;20182;-47
2023/06/17 02:28:58;;;;;;;4.93;3.30;;;13.60;99.90;;;;;;5093081;28;20259;-45
2023/06/17 02:31:26;;;;;;;4.60;3.63;;;13.50;99.90;;;;;;5093849;28;20519;-45
2023/06/17 02:33:52;;;;;;;3.57;3.00;;;13.50;99.90;;;;;;5093515;28;20328;-46
2023/06/17 02:36:18;;;;;;;3.83;3.33;;;13.40;99.90;;;;;;5093650;28;20206;-46
2023/06/17 02:38:44;;;;;;;5.63;3.10;;;13.40;99.90;;;;;;5093442;28;20274;-44
2023/06/17 02:41:10;;;;;;;4.20;3.30;;;13.30;99.90;;;;;;5093790;28;20206;-44
2023/06/17 02:43:36;;;;;;;4.80;3.50;;;13.30;99.90;;;;;;5093931;28;20206;-47
2023/06/17 02:46:01;;;;;;;4.60;3.87;;;13.30;99.90;;;;;;5093462;28;20186;-45
2023/06/17 02:48:27;;;;;;;4.97;4.00;;;13.30;99.90;;;;;;5093389;28;20235;-46
2023/06/17 02:50:54;;;;;;;8.30;3.70;;;13.30;99.90;;;;;;5093413;28;20175;-44
2023/06/17 02:53:20;;;;;;;4.50;4.00;;;13.30;99.90;;;;;;5093547;28;20600;-45
2023/06/17 02:55:48;;;;;;;5.90;4.17;;;13.20;99.90;;;;;;5093311;28;20201;-46
2023/06/17 02:58:18;;;;;;;8.30;4.30;;;13.20;99.90;;;;;;5093587;28;20202;-45
2023/06/17 03:00:46;;;;;;;5.17;3.60;;;13.10;99.90;;;;;;5093616;28;20163;-46
2023/06/17 03:03:11;;;;;;;5.57;3.77;;;13.10;99.90;;;;;;5093546;28;20178;-45
2023/06/17 03:05:41;;;;;;;5.77;3.87;;;13.10;99.90;;;;;;5093177;28;20194;-45
2023/06/17 03:08:07;;;;;;;5.57;3.87;;;13.10;99.90;;;;;;5093085;28;20266;-45
2023/06/17 03:10:34;;;;;;;4.27;3.83;;;13.00;99.90;;;;;;5092002;28;20272;-45
2023/06/17 03:13:01;;;;;;;4.53;3.90;;;13.00;99.90;;;;;;5093455;28;20171;-45
2023/06/17 03:15:27;;;;;;;4.60;3.97;;;13.00;99.90;;;;;;5093107;28;20238;-46
2023/06/17 03:17:53;;;;;;;5.27;3.97;;;12.90;99.90;;;;;;5093078;28;20175;-47
2023/06/17 03:20:19;;;;;;;6.97;3.73;;;12.90;99.90;;;;;;5093512;28;20171;-47
2023/06/17 03:22:47;;;;;;;4.43;3.40;;;12.80;99.90;;;;;;5096168;28;20182;-45
2023/06/17 03:25:12;;;;;;;5.40;3.57;;;12.80;99.90;;;;;;5096573;28;20209;-47
2023/06/17 03:27:38;;;;;;;8.20;4.17;;;12.80;99.90;;;;;;5096199;28;20170;-45
2023/06/17 03:30:04;;;;;;;4.53;3.50;;;12.80;99.90;;;;;;5093034;28;20248;-47
2023/06/17 03:32:30;;;;;;;4.57;3.83;;;12.80;99.90;;;;;;5092228;28;20666;-46
2023/06/17 03:34:56;;;;;;;5.27;4.20;;;12.70;99.90;;;;;;5092004;28;20281;-47
2023/06/17 03:37:22;;;;;;;6.23;3.80;;;12.70;99.90;;;;;;5093099;28;20199;-47
2023/06/17 03:39:48;;;;;;;4.57;4.00;;;12.70;99.90;;;;;;5092771;28;20183;-45
2023/06/17 03:42:16;;;;;;;7.27;3.73;;;12.70;99.90;;;;;;5096163;28;20513;-45
2023/06/17 03:44:41;;;;;;;4.47;3.80;;;12.70;99.90;;;;;;5097057;28;20210;-47
2023/06/17 03:47:07;;;;;;;6.03;4.07;;;12.70;99.90;;;;;;5096977;28;20175;-46
2023/06/17 03:49:33;;;;;;;3.90;3.57;;;12.70;99.90;;;;;;5097103;28;20643;-46
2023/06/17 03:51:58;;;;;;;7.00;3.77;;;12.70;99.90;;;;;;5096900;28;20175;-46
2023/06/17 03:54:24;;;;;;;5.63;3.70;;;12.70;99.90;;;;;;5096592;28;20195;-45
2023/06/17 03:56:49;;;;;;;4.00;3.60;;;12.70;99.90;;;;;;5096611;28;20182;-47
2023/06/17 03:59:16;;;;;;;7.07;3.67;;;12.80;99.90;;;;;;5096423;28;20316;-44
2023/06/17 04:01:42;;;;;;;8.90;3.97;;;12.70;99.90;;;;;;5096469;28;20658;-47
2023/06/17 04:04:08;;;;;;;3.80;3.30;;;12.80;99.90;;;;;;5096328;28;20196;-46
2023/06/17 04:06:36;;;;;;;5.23;3.83;;;12.80;99.90;;;;;;5096492;28;20175;-45
2023/06/17 04:09:03;;;;;;;4.53;3.43;;;12.80;99.90;;;;;;5096489;28;20202;-45
2023/06/17 04:11:32;;;;;;;3.70;3.33;;;12.80;99.90;;;;;;5096433;28;20543;-46
2023/06/17 04:13:59;;;;;;;4.27;3.70;;;12.80;99.90;;;;;;5096056;28;20203;-45
2023/06/17 04:16:24;;;;;;;9.07;3.60;;;12.80;99.90;;;;;;5096107;28;20182;-45
2023/06/17 04:18:50;;;;;;;4.37;3.57;;;12.80;99.90;;;;;;5096100;28;20171;-46
2023/06/17 04:21:16;;;;;;;3.77;3.30;;;12.90;99.90;;;;;;5096033;28;20179;-46
2023/06/17 04:23:42;;;;;;;9.33;4.17;;;12.90;99.90;;;;;;5096155;28;20252;-47
2023/06/17 04:26:07;;;;;;;6.50;3.60;;;13.00;99.90;;;;;;5096237;28;20179;-47
2023/06/17 04:28:34;;;;;;;4.77;3.57;;;13.00;99.90;;;;;;5096140;28;20331;-47
2023/06/17 04:31:01;;;;;;;6.50;4.27;;;13.00;99.90;;;;;;5096321;28;20215;-45
2023/06/17 04:33:27;;;;;;;5.27;3.97;;;13.00;99.90;;;;;;5096024;28;20542;-46
2023/06/17 04:35:53;;;;;;;4.20;3.70;;;13.10;99.90;;;;;;5096074;28;20304;-45
2023/06/17 04:38:21;;;;;;;8.17;4.03;;;13.10;99.90;;;;;;5095841;28;20205;-45
2023/06/17 04:40:52;;;;;;;6.50;3.90;;;13.10;99.90;;;;;;5095902;28;20199;-46
2023/06/17 04:43:20;;;;;;;11.33;4.60;;;13.20;99.90;;;;;;5095893;28;20159;-45
2023/06/17 04:45:46;;;;;;;6.27;4.60;;;13.30;99.90;;;;;;5095629;28;20239;-44
2023/06/17 04:48:12;;;;;;;8.40;4.93;;;13.20;99.90;;;;;;5095566;28;20190;-47
2023/06/17 04:50:37;;;;;;;7.37;4.67;;;13.30;99.90;;;;;;5095118;28;20185;-47
2023/06/17 04:53:03;;;;;;;5.27;4.77;;;13.40;99.90;;;;;;5095597;28;20178;-45
2023/06/17 04:55:30;;;;;;;8.63;5.10;;;13.40;99.90;;;;;;5095606;28;20195;-46
2023/06/17 04:57:56;;;;;;;8.83;4.93;;;13.50;99.90;;;;;;5095358;28;20167;-45
2023/06/17 05:00:21;;;;;;;5.53;4.87;;;13.60;99.90;;;;;;5095908;28;20205;-47
2023/06/17 05:02:47;;;;;;;6.23;5.47;;;13.70;99.90;;;;;;5095390;28;20175;-46
2023/06/17 05:05:13;;;;;;;9.57;5.50;;;13.80;99.90;;;;;;5095572;28;20213;-45
2023/06/17 05:07:38;;;;;;;12.60;5.20;;;13.90;99.90;;;;;;5095225;28;20716;-47
2023/06/17 05:10:05;;;;;;;7.70;5.40;;;14.00;99.90;;;;;;5094995;28;20210;-46
2023/06/17 05:12:30;;;;;;;9.77;5.70;;;14.10;99.90;;;;;;5095732;28;20179;-47
2023/06/17 05:14:56;;;;;;;10.47;5.40;;;14.30;99.90;;;;;;5094963;28;20199;-46
2023/06/17 05:17:21;;;;;;;8.73;5.73;;;14.40;99.90;;;;;;5094984;28;20183;-46
2023/06/17 05:19:48;;;;;;;12.00;6.20;;;14.50;99.90;;;;;;5095575;28;20183;-46
2023/06/17 05:22:14;;;;;;;11.67;5.83;;;14.70;99.90;;;;;;5095520;28;20229;-46
2023/06/17 05:24:39;;;;;;;12.00;6.40;;;14.70;99.90;;;;;;5094890;28;20206;-48
2023/06/17 05:27:05;;;;;;;6.77;5.73;;;14.90;99.90;;;;;;5094779;28;20232;-47
2023/06/17 05:29:31;;;;;;;8.00;5.77;;;15.10;99.90;;;;;;5094935;28;20247;-47
2023/06/17 05:31:57;;;;;;;8.33;5.97;;;15.30;99.90;;;;;;5094747;28;20565;-45
2023/06/17 05:34:22;;;;;;;8.30;6.00;;;15.40;99.90;;;;;;5095017;28;20199;-47
2023/06/17 05:36:48;;;;;;;15.57;6.73;;;15.50;99.90;;;;;;5094811;28;20666;-47
2023/06/17 05:39:14;;;;;;;10.57;6.33;;;15.70;99.90;;;;;;5094856;28;20220;-46
2023/06/17 05:41:39;;;;;;;8.77;6.53;;;15.80;99.90;;;;;;5094523;28;20661;-47
2023/06/17 05:44:05;;;;;;;11.63;6.80;;;15.90;99.90;;;;;;5094678;28;20202;-48
2023/06/17 05:46:30;;;;;;;8.70;6.50;;;16.10;99.90;;;;;;5094490;28;20179;-47
2023/06/17 05:48:56;;;;;;;10.40;6.70;;;16.20;99.90;;;;;;5094265;28;20211;-46
2023/06/17 05:51:21;;;;;;;7.47;6.13;;;16.30;99.90;;;;;;5094380;28;20260;-47
2023/06/17 05:53:47;;;;;;;7.57;6.33;;;16.40;99.90;;;;;;5094317;28;20195;-46
2023/06/17 05:56:13;;;;;;;7.47;6.40;;;16.60;99.90;;;;;;5094328;28;20179;-46
2023/06/17 05:58:38;;;;;;;7.70;5.93;;;16.70;99.90;;;;;;5094494;28;20267;-46
2023/06/17 06:01:04;;;;;;;7.17;6.07;;;16.80;99.90;;;;;;5094246;28;20171;-46
2023/06/17 06:03:30;;;;;;;10.27;6.53;;;16.90;99.90;;;;;;5094139;28;20171;-48
2023/06/17 06:05:55;;;;;;;12.07;6.80;;;17.10;99.90;;;;;;5092876;28;20174;-47
2023/06/17 06:08:21;;;;;;;7.13;6.00;;;17.30;99.90;;;;;;5093758;28;20227;-46
2023/06/17 06:10:46;;;;;;;8.77;5.80;;;17.40;99.90;;;;;;5093966;28;20167;-46
2023/06/17 06:13:12;;;;;;;11.30;6.33;;;17.60;99.90;;;;;;5093913;28;20669;-47
2023/06/17 06:15:37;;;;;;;9.17;7.10;;;17.80;99.90;;;;;;5094009;28;20663;-45
2023/06/17 06:18:03;;;;;;;9.53;6.57;;;18.10;99.90;;;;;;5093975;28;20179;-46
2023/06/17 06:20:29;;;;;;;7.37;5.77;;;18.40;99.90;;;;;;5094315;28;20190;-46
2023/06/17 06:22:55;;;;;;;10.70;5.90;;;18.60;99.90;;;;;;5094459;28;20178;-46
2023/06/17 06:25:20;;;;;;;10.57;6.07;;;18.90;99.90;;;;;;5094710;28;20268;-45
2023/06/17 06:27:49;;;;;;;9.90;5.60;;;19.10;99.90;;;;;;5093888;28;20182;-46
2023/06/17 06:30:15;;;;;;;7.37;5.20;;;19.30;99.90;;;;;;5093953;28;20207;-46
2023/06/17 06:32:40;;;;;;;8.53;5.60;;;19.40;99.90;;;;;;5093636;28;20225;-46
2023/06/17 06:35:06;;;;;;;8.40;5.67;;;19.70;99.90;;;;;;5093531;28;20220;-47
2023/06/17 06:37:32;;;;;;;9.57;5.53;;;19.90;99.90;;;;;;5093333;28;20683;-45
2023/06/17 06:39:58;;;;;;;8.90;6.57;;;20.20;99.90;;;;;;5092056;28;20227;-46
2023/06/17 06:42:23;;;;;;;17.33;6.03;;;20.50;99.90;;;;;;5093374;28;20541;-45
2023/06/17 06:44:49;;;;;;;9.33;5.23;;;20.70;99.90;;;;;;5093580;28;20195;-46
2023/06/17 06:47:15;;;;;;;7.80;5.57;;;21.00;99.90;;;;;;5093164;28;20673;-46
2023/06/17 06:49:40;;;;;;;9.10;5.53;;;21.20;99.90;;;;;;5093224;28;20199;-45
2023/06/17 06:52:06;;;;;;;38.37;9.67;;;21.40;99.90;;;;;;5093376;28;20202;-46
2023/06/17 06:54:32;;;;;;;24.90;7.63;;;21.60;99.90;;;;;;5093292;28;20190;-46
2023/06/17 06:56:57;;;;;;;32.97;7.87;;;21.70;99.90;;;;;;5092057;28;20202;-47
2023/06/17 06:59:23;;;;;;;30.07;8.53;;;21.90;99.90;;;;;;5093633;28;20661;-47
2023/06/17 07:01:48;;;;;;;43.07;12.47;;;22.10;99.90;;;;;;5093352;28;20254;-46
2023/06/17 07:04:14;;;;;;;20.00;6.67;;;22.30;99.90;;;;;;5093658;28;20191;-47
2023/06/17 07:06:40;;;;;;;12.87;4.70;;;22.50;99.90;;;;;;5093173;28;20178;-46
2023/06/17 07:09:06;;;;;;;21.13;4.90;;;22.60;99.90;;;;;;5093064;28;20242;-47
2023/06/17 07:11:32;;;;;;;16.27;4.70;;;22.70;99.90;;;;;;5091946;28;20174;-46
2023/06/17 07:13:57;;;;;;;18.77;4.43;;;23.00;99.90;;;;;;5094616;28;20679;-48
2023/06/17 07:16:23;;;;;;;17.07;4.10;;;23.10;99.90;;;;;;5097465;28;20203;-48
2023/06/17 07:18:48;;;;;;;21.23;4.83;;;23.20;99.90;;;;;;5097230;28;20612;-46
2023/06/17 07:21:14;;;;;;;17.97;4.97;;;23.40;99.90;;;;;;5097126;28;20205;-46
2023/06/17 07:23:39;;;;;;;22.03;5.70;;;23.60;99.90;;;;;;5096910;28;20224;-46
2023/06/17 07:26:06;;;;;;;20.93;5.20;;;23.80;99.90;;;;;;5097072;28;20258;-47
2023/06/17 07:28:32;;;;;;;15.20;4.67;;;24.00;99.90;;;;;;5096828;28;20263;-46
2023/06/17 07:30:58;;;;;;;27.47;6.70;;;24.20;99.90;;;;;;5096969;28;20631;-47
2023/06/17 07:33:25;;;;;;;14.73;4.50;;;24.40;99.90;;;;;;5096900;28;20165;-47
2023/06/17 07:35:51;;;;;;;19.97;5.40;;;24.60;99.90;;;;;;5096956;28;20171;-46
2023/06/17 07:38:16;;;;;;;17.80;4.67;;;24.70;99.90;;;;;;5096599;28;20194;-48
2023/06/17 07:40:42;;;;;;;18.87;4.07;;;24.70;99.90;;;;;;5095769;28;20221;-46
2023/06/17 07:43:09;;;;;;;22.70;4.80;;;24.80;99.90;;;;;;5096890;28;20179;-47
2023/06/17 07:45:35;;;;;;;22.57;6.73;;;25.00;99.90;;;;;;5095441;28;20260;-48
2023/06/17 07:48:00;;;;;;;14.07;5.37;;;25.10;99.90;;;;;;5096921;28;20654;-47
2023/06/17 07:50:26;;;;;;;15.20;4.70;;;25.20;99.90;;;;;;5096469;28;20301;-49
2023/06/17 07:52:52;;;;;;;12.13;5.53;;;25.40;99.90;;;;;;5096789;28;20174;-47
2023/06/17 07:55:18;;;;;;;14.60;4.03;;;25.60;99.90;;;;;;5096377;28;20183;-47
2023/06/17 07:57:44;;;;;;;14.37;3.73;;;25.70;99.90;;;;;;5096306;28;20178;-48
2023/06/17 08:00:12;;;;;;;18.13;3.80;;;25.80;99.90;;;;;;5096348;28;20175;-48
2023/06/17 08:02:42;;;;;;;18.53;4.50;;;25.80;99.90;;;;;;5096391;28;20663;-48
2023/06/17 08:05:08;;;;;;;18.07;4.33;;;25.90;99.90;;;;;;5094990;28;20206;-48
2023/06/17 08:07:35;;;;;;;16.07;4.83;;;26.00;99.90;;;;;;5096100;28;20179;-48
2023/06/17 08:10:01;;;;;;;16.67;4.00;;;26.10;99.90;;;;;;5094811;28;20206;-47
2023/06/17 08:12:27;;;;;;;49.10;10.83;;;26.20;99.90;;;;;;5096164;28;20652;-49
2023/06/17 08:14:52;;;;;;;18.37;4.50;;;26.40;99.90;;;;;;5096044;28;20599;-48
2023/06/17 08:17:18;;;;;;;17.07;4.30;;;26.50;99.90;;;;;;5095977;28;20179;-48
2023/06/17 08:19:43;;;;;;;21.10;4.20;;;26.60;99.90;;;;;;5096256;28;20170;-48
2023/06/17 08:22:10;;;;;;;15.10;3.87;;;26.80;99.90;;;;;;5095901;28;20179;-47
2023/06/17 08:24:36;;;;;;;15.77;4.07;;;26.80;99.60;;;;;;5095869;28;20740;-48
2023/06/17 08:27:04;;;;;;;11.90;4.33;;;26.70;98.70;;;;;;5095252;28;20351;-48
2023/06/17 08:29:31;;;;;;;11.77;3.67;;;26.50;98.40;;;;;;5096049;28;20198;-48
2023/06/17 08:31:56;;;;;;;18.10;4.13;;;26.50;99.00;;;;;;5095951;28;20199;-47
2023/06/17 08:34:22;;;;;;;15.00;3.90;;;26.60;99.30;;;;;;5095956;28;20245;-48
2023/06/17 08:36:54;;;;;;;9.63;4.00;;;26.70;99.00;;;;;;5094369;28;20659;-48
2023/06/17 08:39:20;;;;;;;17.60;4.60;;;27.00;97.90;;;;;;5095719;28;20179;-49
2023/06/17 08:41:47;;;;;;;11.17;3.63;;;27.10;98.00;;;;;;5094292;28;20553;-47
2023/06/17 08:44:13;;;;;;;12.47;3.83;;;26.90;97.30;;;;;;5095495;28;20194;-47
2023/06/17 08:46:41;;;;;;;6.30;3.57;;;26.90;96.10;;;;;;5094462;28;20183;-48
2023/06/17 08:49:08;;;;;;;8.03;3.37;;;26.70;96.10;;;;;;5093920;28;20199;-50
2023/06/17 08:51:35;;;;;;;8.13;3.30;;;26.60;95.80;;;;;;5095448;28;20171;-48
2023/06/17 08:54:01;;;;;;;13.40;3.93;;;26.50;95.20;;;;;;5095438;28;20200;-47
2023/06/17 08:56:27;;;;;;;9.30;3.60;;;26.60;94.80;;;;;;5094075;28;20236;-49
2023/06/17 08:58:54;;;;;;;8.43;3.63;;;26.60;95.00;;;;;;5095291;28;20265;-49
2023/06/17 09:01:24;;;;;;;9.60;3.37;;;26.70;95.90;;;;;;5095626;28;20186;-48
2023/06/17 09:03:51;;;;;;;9.83;3.70;;;26.90;95.50;;;;;;5095544;28;20202;-49
2023/06/17 09:06:24;;;;;;;9.70;3.80;;;27.20;95.10;;;;;;5095153;28;20673;-49
2023/06/17 09:08:57;;;;;;;10.47;4.60;;;27.40;94.20;;;;;;5095109;28;20222;-49
2023/06/17 09:11:25;;;;;;;24.97;5.80;;;27.20;93.10;;;;;;5095187;28;20165;-49
2023/06/17 09:13:52;;;;;;;8.83;3.10;;;27.40;94.30;;;;;;5095234;28;20182;-49
2023/06/17 09:16:31;;;;;;;13.87;3.77;;;27.50;92.90;;;;;;5095287;28;20179;-48
2023/06/17 09:19:00;;;;;;;13.60;3.60;;;27.40;92.00;;;;;;5096476;28;20155;-47
2023/06/17 09:21:27;;;;;;;18.57;4.03;;;27.30;91.90;;;;;;5095261;28;20189;-49
2023/06/17 09:23:56;;;;;;;10.20;3.43;;;27.20;93.60;;;;;;5095271;28;20242;-49
2023/06/17 09:26:41;;;;;;;8.90;3.23;;;27.40;94.40;;;;;;5095080;28;20225;-49
2023/06/17 09:29:12;;;;;;;13.03;3.67;;;27.60;92.80;;;;;;5095211;28;20193;-48
2023/06/17 09:31:49;;;;;;;19.23;4.00;;;27.60;92.90;;;;;;5095084;28;20167;-48
2023/06/17 09:34:17;;;;;;;11.40;4.63;;;27.50;92.50;;;;;;5094662;28;20191;-49
2023/06/17 09:36:43;;;;;;;7.83;3.50;;;27.40;91.80;;;;;;5076942;28;20183;-49
2023/06/17 09:39:11;;;;;;;7.97;4.00;;;27.40;93.10;;;;;;5094799;28;20179;-48
2023/06/17 09:41:37;;;;;;;13.00;3.77;;;27.50;93.00;;;;;;5094443;28;20265;-48
2023/06/17 09:44:03;;;;;;;14.23;3.92;;;27.30;92.90;;;;;;5093069;28;20203;-49
2023/06/17 09:46:35;;;;;;;6.90;3.30;;;27.30;91.80;;;;;;5094663;28;20217;-48
2023/06/17 09:49:09;;;;;;;13.52;3.80;;;27.20;92.00;;;;;;5094595;28;20203;-49
2023/06/17 09:51:40;;;;;;;10.82;3.75;;;27.10;91.10;;;;;;5094646;28;20174;-49
2023/06/17 09:54:07;;;;;;;6.00;3.38;;;27.00;92.00;;;;;;5094558;28;20190;-45
2023/06/17 09:56:34;;;;;;;8.77;3.00;;;27.10;92.40;;;;;;5094596;28;20187;-44
2023/06/17 09:59:00;;;;;;;9.27;3.60;;;27.10;92.40;;;;;;5093026;28;20179;-45
2023/06/17 10:01:30;;;;;;;9.10;3.10;;;27.30;92.90;;;;;;5094588;28;20183;-44
2023/06/17 10:04:00;;;;;;;8.15;3.15;;;27.40;93.10;;;;;;5094074;28;20191;-45
2023/06/17 10:06:37;;;;;;;15.27;3.65;;;27.60;91.50;;;;;;5094411;28;20253;-45
2023/06/17 10:09:07;;;;;;;6.05;3.40;;;27.60;92.20;;;;;;5094237;28;20559;-44
2023/06/17 10:11:40;;;;;;;5.72;3.22;;;27.60;93.50;;;;;;5094215;28;20171;-43
2023/06/17 10:14:23;;;;;;;7.15;3.42;;;27.90;93.00;;;;;;5094225;28;20195;-44
2023/06/17 10:16:51;;;;;;;4.93;3.35;;;28.10;89.30;;;;;;5094085;28;20650;-46
2023/06/17 10:19:20;;;;;;;5.85;3.40;;;27.70;90.00;;;;;;5094342;28;20266;-43
2023/06/17 10:21:49;;;;;;;4.80;3.13;;;27.60;89.70;;;;;;5093989;28;20167;-46
2023/06/17 10:24:16;;;;;;;7.70;3.50;;;27.50;90.10;;;;;;5093747;28;20237;-44
2023/06/17 10:26:42;;;;;;;3.55;2.90;;;27.50;91.00;;;;;;5094315;28;20179;-45
2023/06/17 10:29:10;;;;;;;8.40;3.67;;;27.60;91.00;;;;;;5094194;28;20694;-44
2023/06/17 10:31:40;;;;;;;9.20;3.30;;;27.60;91.20;;;;;;5094179;28;20175;-45
2023/06/17 10:34:19;;;;;;;10.43;3.78;;;27.70;89.20;;;;;;5093503;28;20199;-44
2023/06/17 10:36:58;;;;;;;6.10;3.38;;;27.60;91.10;;;;;;5092278;28;20174;-44
2023/06/17 10:39:23;;;;;;;8.82;3.67;;;27.80;91.50;;;;;;5093673;28;20171;-45
2023/06/17 10:42:15;;;;;;;7.50;3.38;;;28.10;89.30;;;;;;5093853;28;20201;-45
2023/06/17 10:44:42;;;;;;;6.80;3.40;;;27.80;88.70;;;;;;5092229;28;20225;-45
2023/06/17 10:47:22;;;;;;;5.15;3.20;;;27.80;90.30;;;;;;5093863;28;20220;-43
2023/06/17 10:49:49;;;;;;;9.18;3.63;;;27.90;91.60;;;;;;5093255;28;20228;-47
2023/06/17 10:52:16;;;;;;;6.97;3.40;;;28.00;92.00;;;;;;5093732;28;20316;-43
2023/06/17 10:54:59;;;;;;;8.02;3.38;;;28.10;90.60;;;;;;5093411;28;20202;-45
2023/06/17 10:57:30;;;;;;;6.28;3.60;;;28.10;88.00;;;;;;5093588;28;20163;-45
2023/06/17 10:59:59;;;;;;;5.03;3.42;;;28.00;85.00;;;;;;5093500;28;20187;-45
2023/06/17 11:02:25;;;;;;;6.75;3.10;;;27.80;83.80;;;;;;5093549;28;20193;-46
2023/06/17 11:04:51;;;;;;;4.45;3.30;;;27.70;83.90;;;;;;5093741;28;20195;-45
2023/06/17 11:07:25;;;;;;;3.13;2.75;;;27.90;87.10;;;;;;5093694;28;20183;-44
2023/06/17 11:09:51;;;;;;;6.00;2.90;;;28.00;80.60;;;;;;5093616;28;20647;-45
2023/06/17 11:12:17;;;;;;;3.30;3.00;;;28.00;82.00;;;;;;5093462;28;20170;-45
2023/06/17 11:14:43;;;;;;;4.85;2.92;;;28.10;80.80;;;;;;5093300;28;20191;-44
2023/06/17 11:17:09;;;;;;;3.97;2.88;;;28.00;79.90;;;;;;5093472;28;20240;-44
2023/06/17 11:19:34;;;;;;;6.97;2.80;;;28.00;78.40;;;;;;5093505;28;20171;-44
2023/06/17 11:22:07;;;;;;;7.95;3.28;;;27.80;80.00;;;;;;5093490;28;20203;-43
2023/06/17 11:24:34;;;;;;;5.25;3.17;;;27.90;83.00;;;;;;5093117;28;20201;-44
2023/06/17 11:27:01;;;;;;;5.10;3.38;;;28.00;83.60;;;;;;5093316;28;20193;-46
2023/06/17 11:29:28;;;;;;;6.50;3.35;;;28.10;81.30;;;;;;5093260;28;20663;-46
2023/06/17 11:31:54;;;;;;;7.22;3.53;;;28.10;83.20;;;;;;5093307;28;20579;-45
2023/06/17 11:34:22;;;;;;;4.78;3.05;;;28.30;84.60;;;;;;5092532;28;20199;-45
2023/06/17 11:36:53;;;;;;;6.28;3.08;;;28.40;84.40;;;;;;5093116;28;20604;-43
2023/06/17 11:39:29;;;;;;;5.65;3.40;;;28.30;82.20;;;;;;5093072;28;20703;-44
2023/06/17 11:42:02;;;;;;;3.63;2.90;;;28.40;82.50;;;;;;5093277;28;20182;-46
2023/06/17 11:44:30;;;;;;;3.63;3.00;;;28.50;81.30;;;;;;5093125;28;20191;-43
2023/06/17 11:46:58;;;;;;;5.47;3.05;;;28.70;80.70;;;;;;5093183;28;20179;-45
2023/06/17 11:49:27;;;;;;;3.38;3.08;;;28.80;83.30;;;;;;5092675;28;20206;-46
2023/06/17 11:51:53;;;;;;;5.97;3.05;;;29.10;78.10;;;;;;5092835;28;20225;-44
2023/06/17 11:54:19;;;;;;;3.55;3.17;;;29.10;79.40;;;;;;5093018;28;20674;-44
2023/06/17 11:56:47;;;;;;;6.78;3.35;;;29.10;80.90;;;;;;5093107;28;20197;-46
2023/06/17 11:59:13;;;;;;;3.53;3.10;;;29.10;78.20;;;;;;5093044;28;20185;-45
2023/06/17 12:01:40;;;;;;;6.47;3.30;;;29.00;81.30;;;;;;5095150;28;20179;-45
2023/06/17 12:04:05;;;;;;;4.78;3.50;;;29.10;81.40;;;;;;5096645;28;20614;-45
2023/06/17 12:06:31;;;;;;;3.78;3.03;;;29.00;78.30;;;;;;5096676;28;20297;-44
2023/06/17 12:08:59;;;;;;;5.10;3.38;;;29.00;78.40;;;;;;5096349;28;20777;-46
2023/06/17 12:11:27;;;;;;;3.92;3.15;;;28.80;75.20;;;;;;5096334;28;20174;-46
2023/06/17 12:13:57;;;;;;;3.50;3.20;;;28.70;75.90;;;;;;5096466;28;20267;-45
2023/06/17 12:16:33;;;;;;;3.10;2.75;;;28.70;77.80;;;;;;5096552;28;20240;-46
2023/06/17 12:18:59;;;;;;;4.07;3.40;;;28.90;77.00;;;;;;5096211;28;20158;-43
2023/06/17 12:21:25;;;;;;;6.40;3.65;;;29.00;81.00;;;;;;5096176;28;20175;-45
2023/06/17 12:23:55;;;;;;;4.25;3.38;;;29.20;78.40;;;;;;5096149;28;20205;-46
2023/06/17 12:26:23;;;;;;;5.40;3.47;;;29.20;75.10;;;;;;5096020;28;20208;-45
2023/06/17 12:28:49;;;;;;;4.20;2.80;;;29.20;77.30;;;;;;5096017;28;20202;-44
2023/06/17 12:31:15;;;;;;;4.65;3.28;;;29.40;76.90;;;;;;5095891;28;20546;-45
2023/06/17 12:33:41;;;;;;;3.15;2.92;;;29.60;83.10;;;;;;5095663;28;20202;-44
2023/06/17 12:36:07;;;;;;;3.70;2.85;;;30.00;81.00;;;;;;5096010;28;20175;-46
2023/06/17 12:38:33;;;;;;;5.32;3.10;;;30.30;79.10;;;;;;5096348;28;20669;-46
2023/06/17 12:41:00;;;;;;;3.45;2.80;;;30.50;81.20;;;;;;5095819;28;20236;-45
2023/06/17 12:43:29;;;;;;;3.97;2.90;;;30.80;83.40;;;;;;5095933;28;20186;-45